createdAt,value
2022-11-13T00:00:48.418Z,6.52
2022-11-13T00:03:14.776Z,6.29
2022-11-13T00:05:41.155Z,6.19
2022-11-13T00:08:07.518Z,6.27
2022-11-13T00:10:33.881Z,6.02
2022-11-13T00:13:00.332Z,6.04
2022-11-13T00:15:26.700Z,6.29
2022-11-13T00:17:53.160Z,6.18
2022-11-13T00:20:19.777Z,6.02
2022-11-13T00:22:46.573Z,5.96
2022-11-13T00:25:13.336Z,5.90
2022-11-13T00:27:39.738Z,5.93
2022-11-13T00:30:06.684Z,5.95
2022-11-13T00:32:33.062Z,5.95
2022-11-13T00:34:59.417Z,5.72
2022-11-13T00:37:25.760Z,5.91
2022-11-13T00:39:56.957Z,5.80
2022-11-13T00:42:25.853Z,5.84
2022-11-13T00:44:52.230Z,5.75
2022-11-13T00:47:18.572Z,5.75
2022-11-13T00:49:44.933Z,5.79
2022-11-13T00:52:11.330Z,5.67
2022-11-13T00:54:37.839Z,5.84
2022-11-13T00:57:04.304Z,5.80
2022-11-13T00:59:30.702Z,5.90
2022-11-13T01:01:57.205Z,5.95
2022-11-13T01:04:23.625Z,5.96
2022-11-13T01:06:50.014Z,6.20
2022-11-13T01:09:16.424Z,6.18
2022-11-13T01:11:42.825Z,6.21
2022-11-13T01:14:09.383Z,6.12
2022-11-13T01:16:35.745Z,6.13
2022-11-13T01:19:02.177Z,6.12
2022-11-13T01:21:28.739Z,6.32
2022-11-13T01:23:56.202Z,6.50
2022-11-13T01:26:26.241Z,6.58
2022-11-13T01:28:53.793Z,6.66
2022-11-13T01:31:23.514Z,6.75
2022-11-13T01:33:50.354Z,6.63
2022-11-13T01:36:21.046Z,6.70
2022-11-13T01:38:48.210Z,6.70
2022-11-13T01:41:34.398Z,6.71
2022-11-13T01:44:01.170Z,6.87
2022-11-13T01:46:32.819Z,6.86
2022-11-13T01:49:02.241Z,6.81
2022-11-13T01:51:34.574Z,6.78
2022-11-13T01:54:04.519Z,6.83
2022-11-13T01:56:31.001Z,6.64
2022-11-13T01:59:18.630Z,6.77
2022-11-13T02:01:45.071Z,6.82
2022-11-13T02:04:11.671Z,6.87
2022-11-13T02:06:49.709Z,6.87
2022-11-13T02:09:20.079Z,7.04
2022-11-13T02:11:46.925Z,6.97
2022-11-13T02:14:15.787Z,7.00
2022-11-13T02:16:45.295Z,7.03
2022-11-13T02:19:25.106Z,7.07
2022-11-13T02:22:16.974Z,7.04
2022-11-13T02:24:47.898Z,7.13
2022-11-13T02:27:39.898Z,7.17
2022-11-13T02:30:16.371Z,7.16
2022-11-13T02:32:45.109Z,7.22
2022-11-13T02:35:14.956Z,7.14
2022-11-13T02:37:42.122Z,7.14
2022-11-13T02:40:09.321Z,7.12
2022-11-13T02:42:35.676Z,7.12
2022-11-13T02:45:02.150Z,7.01
2022-11-13T02:47:28.706Z,6.99
2022-11-13T02:49:55.127Z,7.06
2022-11-13T02:52:21.625Z,7.06
2022-11-13T02:54:48.026Z,7.04
2022-11-13T02:57:14.498Z,7.04
2022-11-13T02:59:42.196Z,6.95
2022-11-13T03:02:08.673Z,7.02
2022-11-13T03:05:05.172Z,6.96
2022-11-13T03:07:21.684Z,6.93
2022-11-13T03:09:48.090Z,7.00
2022-11-13T03:12:14.803Z,7.01
2022-11-13T03:14:41.159Z,7.03
2022-11-13T03:17:07.564Z,7.14
2022-11-13T03:19:33.914Z,7.05
2022-11-13T03:22:00.329Z,7.21
2022-11-13T03:24:26.711Z,7.19
2022-11-13T03:26:53.341Z,7.16
2022-11-13T03:29:19.682Z,7.01
2022-11-13T03:31:46.078Z,7.09
2022-11-13T03:34:12.492Z,6.99
2022-11-13T03:36:38.827Z,7.02
2022-11-13T03:39:05.377Z,6.95
2022-11-13T03:41:31.721Z,6.93
2022-11-13T03:43:58.179Z,6.90
2022-11-13T03:46:24.555Z,6.90
2022-11-13T03:48:50.888Z,6.86
2022-11-13T03:51:17.254Z,6.83
2022-11-13T03:53:43.608Z,6.84
2022-11-13T03:56:10.010Z,6.80
2022-11-13T03:58:40.102Z,6.80
2022-11-13T04:01:06.838Z,6.80
2022-11-13T04:03:33.298Z,6.78
2022-11-13T04:05:59.635Z,6.72
2022-11-13T04:08:26.262Z,6.74
2022-11-13T04:10:52.869Z,6.65
2022-11-13T04:13:19.270Z,6.76
2022-11-13T04:15:45.663Z,6.75
2022-11-13T04:18:12.071Z,6.69
2022-11-13T04:20:38.479Z,6.72
2022-11-13T04:23:08.869Z,6.63
2022-11-13T04:25:35.217Z,6.61
2022-11-13T04:28:01.569Z,6.61
2022-11-13T04:30:27.931Z,6.49
2022-11-13T04:32:54.285Z,6.43
2022-11-13T04:35:20.634Z,6.50
2022-11-13T04:37:47.039Z,6.56
2022-11-13T04:40:13.445Z,6.54
2022-11-13T04:42:48.700Z,6.56
2022-11-13T04:45:21.147Z,6.45
2022-11-13T04:47:47.613Z,6.60
2022-11-13T04:50:15.400Z,6.58
2022-11-13T04:52:42.721Z,6.56
2022-11-13T04:55:10.182Z,6.60
2022-11-13T04:57:37.066Z,6.52
2022-11-13T05:00:08.292Z,6.49
2022-11-13T05:02:35.179Z,6.36
2022-11-13T05:05:04.971Z,6.39
2022-11-13T05:07:32.146Z,6.29
2022-11-13T05:09:58.506Z,6.26
2022-11-13T05:12:24.867Z,6.28
2022-11-13T05:14:51.220Z,6.16
2022-11-13T05:17:17.655Z,6.25
2022-11-13T05:19:44.073Z,6.26
2022-11-13T05:22:10.460Z,6.08
2022-11-13T05:24:36.867Z,6.14
2022-11-13T05:27:03.233Z,6.06
2022-11-13T05:29:29.615Z,6.09
2022-11-13T05:31:55.957Z,6.02
2022-11-13T05:34:22.391Z,5.89
2022-11-13T05:36:48.721Z,5.72
2022-11-13T05:39:15.198Z,5.57
2022-11-13T05:41:41.570Z,5.45
2022-11-13T05:44:07.937Z,5.56
2022-11-13T05:46:34.366Z,5.55
2022-11-13T05:49:02.130Z,5.63
2022-11-13T05:51:33.749Z,5.50
2022-11-13T05:54:00.741Z,5.53
2022-11-13T05:56:35.742Z,5.43
2022-11-13T05:59:03.709Z,5.35
2022-11-13T06:01:32.703Z,5.38
2022-11-13T06:04:00.984Z,5.36
2022-11-13T06:06:28.778Z,5.24
2022-11-13T06:08:56.482Z,5.12
2022-11-13T06:11:25.018Z,5.13
2022-11-13T06:13:52.813Z,5.02
2022-11-13T06:16:21.987Z,5.17
2022-11-13T06:18:49.312Z,5.07
2022-11-13T06:21:18.900Z,5.06
2022-11-13T06:23:45.459Z,5.17
2022-11-13T06:26:15.617Z,5.07
2022-11-13T06:28:42.378Z,5.12
2022-11-13T06:31:14.404Z,4.98
2022-11-13T06:33:42.042Z,5.12
2022-11-13T06:36:13.998Z,5.14
2022-11-13T06:38:41.807Z,5.02
2022-11-13T06:41:10.290Z,5.11
2022-11-13T06:43:36.814Z,4.94
2022-11-13T06:46:05.802Z,4.85
2022-11-13T06:48:33.180Z,4.77
2022-11-13T06:51:04.538Z,4.82
2022-11-13T06:53:31.854Z,4.69
2022-11-13T06:55:59.011Z,4.72
2022-11-13T06:58:25.578Z,4.64
2022-11-13T07:00:53.055Z,4.75
2022-11-13T07:03:21.776Z,4.73
2022-11-13T07:05:48.321Z,4.70
2022-11-13T07:08:15.370Z,4.59
2022-11-13T07:10:42.262Z,4.61
2022-11-13T07:13:09.373Z,4.58
2022-11-13T07:15:37.594Z,4.56
2022-11-13T07:18:05.729Z,4.60
2022-11-13T07:20:33.237Z,4.71
2022-11-13T07:23:01.635Z,4.72
2022-11-13T07:25:28.946Z,4.79
2022-11-13T07:27:55.366Z,4.71
2022-11-13T07:30:22.203Z,4.84
2022-11-13T07:32:48.760Z,4.97
2022-11-13T07:35:16.782Z,5.26
2022-11-13T07:37:43.718Z,5.47
2022-11-13T07:40:11.110Z,5.48
2022-11-13T07:42:38.172Z,5.54
2022-11-13T07:45:05.706Z,5.72
2022-11-13T07:47:32.253Z,5.85
2022-11-13T07:50:05.676Z,5.81
2022-11-13T07:52:36.054Z,5.93
2022-11-13T07:55:03.382Z,5.96
2022-11-13T07:57:29.733Z,6.09
2022-11-13T07:59:56.086Z,6.01
2022-11-13T08:02:26.476Z,6.10
2022-11-13T08:04:53.434Z,6.21
2022-11-13T08:07:19.942Z,6.20
2022-11-13T08:09:46.335Z,6.24
2022-11-13T08:12:12.661Z,6.32
2022-11-13T08:14:39.001Z,6.45
2022-11-13T08:17:05.362Z,6.48
2022-11-13T08:19:31.705Z,6.51
2022-11-13T08:21:58.187Z,6.77
2022-11-13T08:24:24.593Z,6.89
2022-11-13T08:26:50.929Z,7.09
2022-11-13T08:29:17.301Z,7.19
2022-11-13T08:31:43.712Z,7.77
2022-11-13T08:34:10.111Z,8.07
2022-11-13T08:36:36.448Z,8.43
2022-11-13T08:39:02.863Z,8.70
2022-11-13T08:41:29.246Z,8.94
2022-11-13T08:43:55.609Z,9.17
2022-11-13T08:46:22.029Z,9.19
2022-11-13T08:48:48.382Z,9.33
2022-11-13T08:51:14.730Z,9.44
2022-11-13T08:53:41.092Z,9.52
2022-11-13T08:56:07.458Z,9.41
2022-11-13T08:58:33.802Z,9.16
2022-11-13T09:01:01.524Z,9.12
2022-11-13T09:03:28.052Z,9.20
2022-11-13T09:05:54.431Z,9.43
2022-11-13T09:08:20.795Z,9.55
2022-11-13T09:10:47.509Z,9.64
2022-11-13T09:13:13.965Z,9.71
2022-11-13T09:15:40.505Z,9.79
2022-11-13T09:18:06.844Z,9.71
2022-11-13T09:20:33.813Z,9.77
2022-11-13T09:23:02.469Z,9.64
2022-11-13T09:25:35.789Z,9.82
2022-11-13T09:28:04.142Z,9.93
2022-11-13T09:30:30.811Z,10.01
2022-11-13T09:32:58.724Z,10.25
2022-11-13T09:35:35.572Z,10.27
2022-11-13T09:38:11.465Z,10.35
2022-11-13T09:40:53.327Z,10.48
2022-11-13T09:43:25.624Z,10.54
2022-11-13T09:45:55.378Z,10.66
2022-11-13T09:48:34.046Z,10.84
2022-11-13T09:51:05.760Z,10.79
2022-11-13T09:53:36.288Z,10.93
2022-11-13T09:56:08.549Z,11.00
2022-11-13T09:58:46.556Z,10.97
2022-11-13T10:01:24.763Z,11.07
2022-11-13T10:04:02.486Z,11.06
2022-11-13T10:06:48.155Z,11.06
2022-11-13T10:09:28.030Z,11.00
2022-11-13T10:12:02.992Z,11.04
2022-11-13T10:14:36.055Z,11.10
2022-11-13T10:17:18.205Z,11.07
2022-11-13T10:19:58.817Z,11.12
2022-11-13T10:22:36.910Z,11.06
2022-11-13T10:25:11.933Z,11.10
2022-11-13T10:27:38.967Z,11.08
2022-11-13T10:30:14.202Z,11.13
2022-11-13T10:32:40.749Z,11.21
2022-11-13T10:35:07.071Z,11.26
2022-11-13T10:38:04.716Z,11.29
2022-11-13T10:40:37.079Z,11.25
2022-11-13T10:43:13.163Z,11.29
2022-11-13T10:45:40.675Z,11.32
2022-11-13T10:48:19.906Z,11.31
2022-11-13T10:50:54.444Z,11.37
2022-11-13T10:53:20.988Z,11.33
2022-11-13T10:55:51.649Z,11.37
2022-11-13T10:58:19.802Z,11.44
2022-11-13T11:00:49.099Z,11.41
2022-11-13T11:03:22.341Z,11.45
2022-11-13T11:06:01.843Z,11.48
2022-11-13T11:08:33.792Z,11.46
2022-11-13T11:11:28.333Z,11.70
2022-11-13T11:14:25.210Z,11.71
2022-11-13T11:16:52.854Z,11.81
2022-11-13T11:19:24.963Z,11.78
2022-11-13T11:21:59.210Z,11.91
2022-11-13T11:24:32.206Z,11.94
2022-11-13T11:27:14.882Z,12.06
2022-11-13T11:29:59.822Z,12.10
2022-11-13T11:32:38.701Z,12.20
2022-11-13T11:35:20.566Z,12.29
2022-11-13T11:38:01.226Z,12.37
2022-11-13T11:40:36.125Z,12.57
2022-11-13T11:43:27.039Z,12.72
2022-11-13T11:45:53.848Z,12.72
2022-11-13T11:48:23.144Z,12.83
2022-11-13T11:51:17.376Z,12.83
2022-11-13T11:53:59.756Z,12.91
2022-11-13T11:56:44.071Z,13.04
2022-11-13T11:59:33.746Z,13.07
2022-11-13T12:02:06.349Z,13.09
2022-11-13T12:04:39.136Z,13.27
2022-11-13T12:07:29.159Z,13.28
2022-11-13T12:09:55.545Z,13.47
2022-11-13T12:12:40.405Z,13.81
2022-11-13T12:15:31.831Z,13.93
2022-11-13T12:18:33.162Z,14.00
2022-11-13T12:21:16.877Z,14.12
2022-11-13T12:24:39.518Z,14.19
2022-11-13T12:27:31.341Z,14.10
2022-11-13T12:30:21.087Z,14.02
2022-11-13T12:33:05.618Z,13.85
2022-11-13T12:35:32.083Z,13.71
2022-11-13T12:38:13.403Z,13.57
2022-11-13T12:40:48.865Z,13.55
2022-11-13T12:43:47.870Z,13.51
2022-11-13T12:46:14.576Z,13.45
2022-11-13T12:48:43.406Z,13.50
2022-11-13T12:51:15.371Z,13.34
2022-11-13T12:53:53.291Z,13.17
2022-11-13T12:56:28.614Z,13.30
2022-11-13T12:59:28.678Z,13.15
2022-11-13T13:02:09.225Z,13.01
2022-11-13T13:04:54.239Z,12.89
2022-11-13T13:08:00.933Z,12.74
2022-11-13T13:11:00.734Z,12.42
2022-11-13T13:14:02.340Z,12.44
2022-11-13T13:16:29.760Z,12.29
2022-11-13T13:19:22.649Z,12.10
2022-11-13T13:21:49.343Z,11.96
2022-11-13T13:24:36.717Z,11.89
2022-11-13T13:27:21.775Z,11.63
2022-11-13T13:29:48.100Z,11.57
2022-11-13T13:32:23.604Z,11.68
2022-11-13T13:34:58.954Z,11.59
2022-11-13T13:37:41.045Z,11.52
2022-11-13T13:40:34.977Z,11.44
2022-11-13T13:43:20.999Z,11.39
2022-11-13T13:45:53.059Z,11.33
2022-11-13T13:48:23.938Z,11.25
2022-11-13T13:50:51.605Z,11.27
2022-11-13T13:53:31.765Z,11.21
2022-11-13T13:55:59.059Z,11.27
2022-11-13T13:58:34.951Z,11.33
2022-11-13T14:01:20.220Z,11.56
2022-11-13T14:03:46.991Z,11.42
2022-11-13T14:06:24.572Z,11.40
2022-11-13T14:08:50.949Z,11.32
2022-11-13T14:11:29.605Z,11.22
2022-11-13T14:14:07.794Z,11.19
2022-11-13T14:16:34.533Z,11.22
2022-11-13T14:19:05.109Z,11.50
2022-11-13T14:21:31.815Z,11.51
2022-11-13T14:24:01.414Z,11.52
2022-11-13T14:26:29.219Z,11.62
2022-11-13T14:28:59.005Z,11.65
2022-11-13T14:31:32.541Z,11.75
2022-11-13T14:34:21.136Z,11.76
2022-11-13T14:36:48.408Z,11.77
2022-11-13T14:39:32.258Z,11.68
2022-11-13T14:42:00.153Z,11.49
2022-11-13T14:44:33.369Z,11.45
2022-11-13T14:47:05.393Z,10.94
2022-11-13T14:49:33.811Z,10.92
2022-11-13T14:52:01.295Z,10.89
2022-11-13T14:54:53.265Z,10.72
2022-11-13T14:57:17.790Z,10.48
2022-11-13T14:59:44.330Z,10.29
2022-11-13T15:02:12.414Z,10.30
2022-11-13T15:04:40.652Z,10.15
2022-11-13T15:07:33.237Z,9.97
2022-11-13T15:10:00.981Z,9.96
2022-11-13T15:12:27.324Z,9.83
2022-11-13T15:14:53.875Z,9.69
2022-11-13T15:17:22.248Z,9.57
2022-11-13T15:19:52.436Z,9.44
2022-11-13T15:22:28.095Z,9.41
2022-11-13T15:24:55.099Z,9.36
2022-11-13T15:27:21.594Z,9.15
2022-11-13T15:29:47.941Z,9.14
2022-11-13T15:32:15.898Z,8.97
2022-11-13T15:34:42.427Z,8.87
2022-11-13T15:37:14.037Z,8.63
2022-11-13T15:39:40.358Z,8.64
2022-11-13T15:42:11.867Z,8.64
2022-11-13T15:44:38.326Z,8.51
2022-11-13T15:47:22.502Z,8.30
2022-11-13T15:50:09.808Z,8.23
2022-11-13T15:52:39.002Z,8.18
2022-11-13T15:55:16.090Z,8.25
2022-11-13T15:57:42.790Z,8.07
2022-11-13T16:00:13.988Z,7.95
2022-11-13T16:02:41.200Z,7.84
2022-11-13T16:05:07.835Z,7.86
2022-11-13T16:07:35.250Z,7.76
2022-11-13T16:10:04.433Z,7.75
2022-11-13T16:12:30.774Z,7.69
2022-11-13T16:14:57.120Z,7.58
2022-11-13T16:17:23.538Z,7.59
2022-11-13T16:19:52.556Z,7.52
2022-11-13T16:22:24.627Z,7.65
2022-11-13T16:24:51.467Z,7.53
2022-11-13T16:27:32.208Z,7.34
2022-11-13T16:30:02.391Z,7.19
2022-11-13T16:32:32.838Z,7.21
2022-11-13T16:34:59.157Z,7.11
2022-11-13T16:37:25.543Z,7.09
2022-11-13T16:39:51.864Z,7.02
2022-11-13T16:42:18.229Z,6.87
2022-11-13T16:44:44.587Z,6.80
2022-11-13T16:47:23.216Z,6.77
2022-11-13T16:49:50.306Z,6.87
2022-11-13T16:52:17.647Z,6.60
2022-11-13T16:54:44.131Z,6.59
2022-11-13T16:57:14.405Z,6.52
2022-11-13T16:59:41.055Z,6.45
2022-11-13T17:02:16.012Z,6.24
2022-11-13T17:04:43.170Z,6.37
2022-11-13T17:07:13.038Z,6.34
2022-11-13T17:09:44.801Z,6.23
2022-11-13T17:12:11.669Z,6.23
2022-11-13T17:14:38.433Z,6.15
2022-11-13T17:17:06.594Z,6.19
2022-11-13T17:19:33.096Z,6.21
2022-11-13T17:21:59.477Z,6.19
2022-11-13T17:24:26.965Z,6.15
2022-11-13T17:26:53.337Z,6.09
2022-11-13T17:29:19.692Z,6.17
2022-11-13T17:31:46.226Z,6.25
2022-11-13T17:34:12.606Z,6.23
2022-11-13T17:36:38.941Z,6.30
2022-11-13T17:39:05.355Z,6.17
2022-11-13T17:41:31.747Z,6.27
2022-11-13T17:44:01.330Z,6.26
2022-11-13T17:46:28.231Z,6.17
2022-11-13T17:48:54.726Z,6.19
2022-11-13T17:51:21.358Z,6.03
2022-11-13T17:53:47.854Z,6.15
2022-11-13T17:56:14.470Z,6.24
2022-11-13T17:58:42.553Z,6.18
2022-11-13T18:01:24.261Z,6.52
2022-11-13T18:03:55.745Z,6.52
2022-11-13T18:06:23.207Z,6.69
2022-11-13T18:08:50.197Z,6.79
2022-11-13T18:11:20.250Z,6.62
2022-11-13T18:13:47.963Z,6.84
2022-11-13T18:16:18.896Z,7.00
2022-11-13T18:18:50.347Z,6.89
2022-11-13T18:21:22.876Z,6.89
2022-11-13T18:23:55.754Z,7.01
2022-11-13T18:26:22.169Z,7.11
2022-11-13T18:28:48.517Z,8.03
2022-11-13T18:31:16.793Z,8.03
2022-11-13T18:33:43.395Z,8.02
2022-11-13T18:36:10.538Z,7.90
2022-11-13T18:38:37.199Z,8.02
2022-11-13T18:41:04.866Z,8.20
2022-11-13T18:43:31.960Z,8.41
2022-11-13T18:46:00.321Z,8.56
2022-11-13T18:48:31.191Z,8.76
2022-11-13T18:51:01.347Z,8.75
2022-11-13T18:53:28.181Z,8.74
2022-11-13T18:56:05.245Z,8.50
2022-11-13T18:58:32.281Z,8.61
2022-11-13T19:01:11.397Z,8.65
2022-11-13T19:03:38.237Z,8.56
2022-11-13T19:06:12.039Z,8.51
2022-11-13T19:08:40.865Z,8.46
2022-11-13T19:11:10.822Z,8.39
2022-11-13T19:13:38.564Z,8.34
2022-11-13T19:16:10.896Z,8.58
2022-11-13T19:18:39.158Z,9.00
2022-11-13T19:21:07.618Z,9.12
2022-11-13T19:23:34.461Z,9.28
2022-11-13T19:26:00.989Z,9.32
2022-11-13T19:28:28.367Z,9.35
2022-11-13T19:30:55.345Z,9.35
2022-11-13T19:33:23.159Z,9.44
2022-11-13T19:35:51.062Z,9.58
2022-11-13T19:38:17.515Z,9.74
2022-11-13T19:40:49.601Z,9.68
2022-11-13T19:43:16.262Z,9.45
2022-11-13T19:45:43.159Z,9.67
2022-11-13T19:48:17.678Z,9.52
2022-11-13T19:50:47.220Z,9.51
2022-11-13T19:53:16.343Z,9.53
2022-11-13T19:55:42.943Z,9.52
2022-11-13T19:58:09.368Z,9.37
2022-11-13T20:00:36.025Z,9.64
2022-11-13T20:03:07.313Z,9.70
2022-11-13T20:05:34.075Z,9.61
2022-11-13T20:08:00.503Z,9.61
2022-11-13T20:10:26.843Z,9.74
2022-11-13T20:12:53.210Z,9.65
2022-11-13T20:15:19.639Z,9.57
2022-11-13T20:17:45.979Z,9.73
2022-11-13T20:20:12.503Z,9.68
2022-11-13T20:22:38.850Z,9.64
2022-11-13T20:25:05.343Z,9.75
2022-11-13T20:27:32.468Z,9.86
2022-11-13T20:30:00.252Z,9.84
2022-11-13T20:32:27.419Z,9.96
2022-11-13T20:34:53.948Z,9.92
2022-11-13T20:37:20.292Z,9.84
2022-11-13T20:39:46.691Z,9.86
2022-11-13T20:42:13.118Z,9.89
2022-11-13T20:44:39.479Z,9.81
2022-11-13T20:47:05.855Z,9.77
2022-11-13T20:49:32.210Z,9.87
2022-11-13T20:51:58.580Z,9.81
2022-11-13T20:54:24.942Z,9.73
2022-11-13T20:56:51.327Z,9.79
2022-11-13T20:59:17.682Z,9.73
2022-11-13T21:01:44.098Z,9.70
2022-11-13T21:04:10.499Z,9.65
2022-11-13T21:06:36.854Z,9.58
2022-11-13T21:09:03.557Z,9.70
2022-11-13T21:11:29.890Z,9.62
2022-11-13T21:13:57.485Z,9.64
2022-11-13T21:16:24.620Z,9.59
2022-11-13T21:18:51.342Z,9.57
2022-11-13T21:21:20.408Z,9.47
2022-11-13T21:23:47.880Z,9.43
2022-11-13T21:26:14.661Z,9.40
2022-11-13T21:28:41.742Z,9.42
2022-11-13T21:31:14.210Z,9.45
2022-11-13T21:33:43.132Z,9.50
2022-11-13T21:36:14.900Z,9.41
2022-11-13T21:38:42.474Z,9.43
2022-11-13T21:41:26.964Z,9.36
2022-11-13T21:43:59.382Z,9.38
2022-11-13T21:46:28.947Z,9.21
2022-11-13T21:49:06.607Z,9.25
2022-11-13T21:51:34.726Z,9.16
2022-11-13T21:54:01.230Z,9.13
2022-11-13T21:56:29.365Z,9.13
2022-11-13T21:58:56.193Z,8.99
2022-11-13T22:01:23.893Z,9.02
2022-11-13T22:03:50.725Z,8.90
2022-11-13T22:06:28.077Z,8.84
2022-11-13T22:09:07.005Z,8.68
2022-11-13T22:11:36.230Z,8.59
2022-11-13T22:14:03.913Z,8.58
2022-11-13T22:16:31.961Z,8.58
2022-11-13T22:19:00.659Z,8.52
2022-11-13T22:21:28.696Z,8.53
2022-11-13T22:23:55.559Z,8.46
2022-11-13T22:26:23.884Z,8.43
2022-11-13T22:28:51.081Z,8.39
2022-11-13T22:31:22.954Z,8.31
2022-11-13T22:33:54.382Z,8.28
2022-11-13T22:36:41.662Z,8.32
2022-11-13T22:39:08.148Z,8.21
2022-11-13T22:41:35.837Z,8.20
2022-11-13T22:44:07.112Z,8.05
2022-11-13T22:46:35.579Z,8.07
2022-11-13T22:49:03.618Z,7.97
2022-11-13T22:51:40.952Z,7.96
2022-11-13T22:54:09.696Z,7.94
2022-11-13T22:56:37.753Z,7.82
2022-11-13T22:59:06.484Z,7.82
2022-11-13T23:01:35.372Z,7.75
2022-11-13T23:04:05.322Z,7.66
2022-11-13T23:06:34.225Z,7.64
2022-11-13T23:09:01.618Z,7.56
2022-11-13T23:11:29.706Z,7.57
2022-11-13T23:13:57.860Z,7.51
2022-11-13T23:16:26.070Z,7.56
2022-11-13T23:18:55.393Z,7.39
2022-11-13T23:21:22.229Z,7.42
2022-11-13T23:23:48.954Z,7.50
2022-11-13T23:26:15.983Z,7.38
2022-11-13T23:28:42.507Z,7.31
2022-11-13T23:31:09.292Z,7.29
2022-11-13T23:33:36.827Z,7.22
2022-11-13T23:36:03.927Z,7.10
2022-11-13T23:38:30.842Z,7.12
2022-11-13T23:40:59.314Z,7.05
2022-11-13T23:43:53.936Z,6.99
2022-11-13T23:46:13.334Z,6.96
2022-11-13T23:48:40.231Z,6.92
2022-11-13T23:51:07.305Z,6.88
2022-11-13T23:53:33.750Z,6.88
2022-11-13T23:56:00.193Z,6.86
2022-11-13T23:58:26.805Z,6.75
